sensor_id;sensor_type;location;lat;lon;timestamp;P1;durP1;ratioP1;P2;durP2;ratioP2
60641;SDS011;46837;52.446;-1.930;2022-09-09T00:06:14;13.52;;;5.66;;
60641;SDS011;46837;52.446;-1.930;2022-09-09T00:08:07;6.20;;;4.66;;
60641;SDS011;46837;52.446;-1.930;2022-09-09T00:09:15;8.12;;;3.92;;
60641;SDS011;46837;52.446;-1.930;2022-09-09T00:11:07;11.18;;;5.10;;
60641;SDS011;46837;52.446;-1.930;2022-09-09T00:14:09;8.72;;;4.88;;
60641;SDS011;46837;52.446;-1.930;2022-09-09T00:16:09;10.40;;;3.98;;
60641;SDS011;46837;52.446;-1.930;2022-09-09T00:19:08;8.08;;;4.80;;
60641;SDS011;46837;52.446;-1.930;2022-09-09T00:21:08;8.12;;;4.42;;
60641;SDS011;46837;52.446;-1.930;2022-09-09T00:25:10;10.86;;;4.70;;
60641;SDS011;46837;52.446;-1.930;2022-09-09T00:27:08;11.76;;;4.86;;
60641;SDS011;46837;52.446;-1.930;2022-09-09T00:28:16;12.40;;;5.20;;
60641;SDS011;46837;52.446;-1.930;2022-09-09T00:29:14;7.00;;;4.70;;
60641;SDS011;46837;52.446;-1.930;2022-09-09T00:33:11;17.40;;;6.36;;
60641;SDS011;46837;52.446;-1.930;2022-09-09T00:36:09;7.06;;;4.40;;
60641;SDS011;46837;52.446;-1.930;2022-09-09T00:37:07;9.26;;;4.46;;
60641;SDS011;46837;52.446;-1.930;2022-09-09T00:38:10;14.28;;;5.08;;
60641;SDS011;46837;52.446;-1.930;2022-09-09T00:39:13;8.20;;;4.78;;
60641;SDS011;46837;52.446;-1.930;2022-09-09T00:40:18;10.30;;;5.26;;
60641;SDS011;46837;52.446;-1.930;2022-09-09T00:41:10;11.98;;;4.76;;
60641;SDS011;46837;52.446;-1.930;2022-09-09T00:43:18;14.28;;;5.90;;
60641;SDS011;46837;52.446;-1.930;2022-09-09T00:48:09;6.92;;;4.04;;
60641;SDS011;46837;52.446;-1.930;2022-09-09T00:51:14;7.06;;;4.10;;
60641;SDS011;46837;52.446;-1.930;2022-09-09T00:53:16;5.14;;;3.72;;
60641;SDS011;46837;52.446;-1.930;2022-09-09T00:54:13;9.46;;;4.68;;
60641;SDS011;46837;52.446;-1.930;2022-09-09T00:55:17;8.86;;;4.20;;
60641;SDS011;46837;52.446;-1.930;2022-09-09T00:58:07;8.52;;;4.14;;
60641;SDS011;46837;52.446;-1.930;2022-09-09T01:01:11;10.08;;;4.08;;
60641;SDS011;46837;52.446;-1.930;2022-09-09T01:02:13;5.44;;;4.00;;
60641;SDS011;46837;52.446;-1.930;2022-09-09T01:04:11;11.16;;;4.70;;
60641;SDS011;46837;52.446;-1.930;2022-09-09T01:06:14;10.48;;;3.98;;
60641;SDS011;46837;52.446;-1.930;2022-09-09T01:07:10;10.22;;;4.96;;
60641;SDS011;46837;52.446;-1.930;2022-09-09T01:08:10;5.52;;;4.24;;
60641;SDS011;46837;52.446;-1.930;2022-09-09T01:10:07;10.10;;;4.96;;
60641;SDS011;46837;52.446;-1.930;2022-09-09T01:11:07;11.80;;;4.96;;
60641;SDS011;46837;52.446;-1.930;2022-09-09T01:13:11;7.64;;;5.20;;
60641;SDS011;46837;52.446;-1.930;2022-09-09T01:14:13;8.80;;;4.30;;
60641;SDS011;46837;52.446;-1.930;2022-09-09T01:15:12;7.34;;;4.78;;
60641;SDS011;46837;52.446;-1.930;2022-09-09T01:16:08;5.00;;;4.24;;
60641;SDS011;46837;52.446;-1.930;2022-09-09T01:19:07;10.24;;;4.62;;
60641;SDS011;46837;52.446;-1.930;2022-09-09T01:21:16;9.06;;;4.52;;
60641;SDS011;46837;52.446;-1.930;2022-09-09T01:27:07;18.10;;;9.36;;
60641;SDS011;46837;52.446;-1.930;2022-09-09T01:28:08;26.12;;;8.00;;
60641;SDS011;46837;52.446;-1.930;2022-09-09T01:29:11;15.18;;;7.64;;
60641;SDS011;46837;52.446;-1.930;2022-09-09T01:30:13;18.94;;;8.70;;
60641;SDS011;46837;52.446;-1.930;2022-09-09T01:31:07;9.48;;;6.68;;
60641;SDS011;46837;52.446;-1.930;2022-09-09T01:33:07;11.82;;;5.84;;
60641;SDS011;46837;52.446;-1.930;2022-09-09T01:34:13;13.72;;;6.72;;
60641;SDS011;46837;52.446;-1.930;2022-09-09T01:35:52;10.92;;;7.28;;
60641;SDS011;46837;52.446;-1.930;2022-09-09T01:37:07;20.44;;;7.62;;
60641;SDS011;46837;52.446;-1.930;2022-09-09T01:38:07;12.82;;;8.92;;
60641;SDS011;46837;52.446;-1.930;2022-09-09T01:39:07;19.10;;;9.78;;
60641;SDS011;46837;52.446;-1.930;2022-09-09T01:40:07;24.90;;;10.56;;
60641;SDS011;46837;52.446;-1.930;2022-09-09T01:41:07;23.44;;;9.92;;
60641;SDS011;46837;52.446;-1.930;2022-09-09T01:42:08;17.00;;;9.16;;
60641;SDS011;46837;52.446;-1.930;2022-09-09T01:43:07;18.46;;;9.00;;
60641;SDS011;46837;52.446;-1.930;2022-09-09T01:44:07;27.14;;;9.68;;
60641;SDS011;46837;52.446;-1.930;2022-09-09T01:45:07;17.50;;;8.90;;
60641;SDS011;46837;52.446;-1.930;2022-09-09T01:46:07;17.02;;;8.82;;
60641;SDS011;46837;52.446;-1.930;2022-09-09T01:47:07;14.48;;;9.42;;
60641;SDS011;46837;52.446;-1.930;2022-09-09T01:48:07;15.08;;;7.52;;
60641;SDS011;46837;52.446;-1.930;2022-09-09T01:49:07;17.16;;;7.66;;
60641;SDS011;46837;52.446;-1.930;2022-09-09T01:50:07;16.22;;;7.30;;
60641;SDS011;46837;52.446;-1.930;2022-09-09T01:51:08;18.04;;;8.14;;
60641;SDS011;46837;52.446;-1.930;2022-09-09T01:52:07;17.88;;;7.92;;
60641;SDS011;46837;52.446;-1.930;2022-09-09T01:53:07;17.88;;;8.24;;
60641;SDS011;46837;52.446;-1.930;2022-09-09T01:54:07;11.88;;;7.02;;
60641;SDS011;46837;52.446;-1.930;2022-09-09T01:55:07;21.32;;;7.74;;
60641;SDS011;46837;52.446;-1.930;2022-09-09T01:56:18;14.72;;;7.54;;
60641;SDS011;46837;52.446;-1.930;2022-09-09T02:00:10;13.42;;;5.52;;
60641;SDS011;46837;52.446;-1.930;2022-09-09T02:04:49;11.32;;;5.70;;
60641;SDS011;46837;52.446;-1.930;2022-09-09T02:08:11;17.56;;;7.68;;
60641;SDS011;46837;52.446;-1.930;2022-09-09T02:09:07;11.32;;;7.38;;
60641;SDS011;46837;52.446;-1.930;2022-09-09T02:10:12;14.86;;;7.28;;
60641;SDS011;46837;52.446;-1.930;2022-09-09T02:12:09;9.60;;;7.68;;
60641;SDS011;46837;52.446;-1.930;2022-09-09T02:13:09;9.24;;;7.08;;
60641;SDS011;46837;52.446;-1.930;2022-09-09T02:14:11;11.42;;;7.04;;
60641;SDS011;46837;52.446;-1.930;2022-09-09T02:15:08;11.50;;;6.06;;
60641;SDS011;46837;52.446;-1.930;2022-09-09T02:16:08;12.02;;;7.98;;
60641;SDS011;46837;52.446;-1.930;2022-09-09T02:17:10;15.82;;;8.06;;
60641;SDS011;46837;52.446;-1.930;2022-09-09T02:18:07;11.36;;;8.20;;
60641;SDS011;46837;52.446;-1.930;2022-09-09T02:20:11;14.60;;;7.98;;
60641;SDS011;46837;52.446;-1.930;2022-09-09T02:21:07;21.06;;;7.90;;
60641;SDS011;46837;52.446;-1.930;2022-09-09T02:22:07;16.00;;;7.24;;
60641;SDS011;46837;52.446;-1.930;2022-09-09T02:23:07;14.44;;;8.04;;
60641;SDS011;46837;52.446;-1.930;2022-09-09T02:24:07;11.90;;;8.38;;
60641;SDS011;46837;52.446;-1.930;2022-09-09T02:25:07;14.62;;;7.72;;
60641;SDS011;46837;52.446;-1.930;2022-09-09T02:26:07;14.82;;;8.90;;
60641;SDS011;46837;52.446;-1.930;2022-09-09T02:27:07;16.12;;;8.48;;
60641;SDS011;46837;52.446;-1.930;2022-09-09T02:28:07;12.24;;;8.54;;
60641;SDS011;46837;52.446;-1.930;2022-09-09T02:29:16;15.60;;;9.92;;
60641;SDS011;46837;52.446;-1.930;2022-09-09T02:30:07;13.06;;;8.60;;
60641;SDS011;46837;52.446;-1.930;2022-09-09T02:31:07;13.80;;;9.64;;
60641;SDS011;46837;52.446;-1.930;2022-09-09T02:32:09;13.60;;;8.20;;
60641;SDS011;46837;52.446;-1.930;2022-09-09T02:33:07;13.92;;;9.40;;
60641;SDS011;46837;52.446;-1.930;2022-09-09T02:34:07;13.04;;;9.12;;
60641;SDS011;46837;52.446;-1.930;2022-09-09T02:35:08;13.10;;;9.90;;
60641;SDS011;46837;52.446;-1.930;2022-09-09T02:36:07;17.08;;;9.18;;
60641;SDS011;46837;52.446;-1.930;2022-09-09T02:37:07;22.58;;;10.86;;
60641;SDS011;46837;52.446;-1.930;2022-09-09T02:38:08;14.84;;;9.56;;
60641;SDS011;46837;52.446;-1.930;2022-09-09T02:39:07;18.80;;;10.66;;
60641;SDS011;46837;52.446;-1.930;2022-09-09T02:40:07;17.90;;;10.86;;
60641;SDS011;46837;52.446;-1.930;2022-09-09T02:41:07;16.98;;;11.24;;
60641;SDS011;46837;52.446;-1.930;2022-09-09T02:42:07;20.70;;;12.30;;
60641;SDS011;46837;52.446;-1.930;2022-09-09T02:43:07;19.22;;;12.32;;
60641;SDS011;46837;52.446;-1.930;2022-09-09T02:45:08;16.30;;;10.86;;
60641;SDS011;46837;52.446;-1.930;2022-09-09T02:49:11;17.16;;;11.66;;
60641;SDS011;46837;52.446;-1.930;2022-09-09T02:52:07;17.70;;;12.22;;
60641;SDS011;46837;52.446;-1.930;2022-09-09T02:55:10;22.26;;;10.90;;
60641;SDS011;46837;52.446;-1.930;2022-09-09T02:56:14;27.42;;;11.70;;
60641;SDS011;46837;52.446;-1.930;2022-09-09T02:58:07;24.08;;;13.22;;
60641;SDS011;46837;52.446;-1.930;2022-09-09T02:59:07;20.06;;;12.56;;
60641;SDS011;46837;52.446;-1.930;2022-09-09T03:00:07;29.38;;;12.98;;
60641;SDS011;46837;52.446;-1.930;2022-09-09T03:01:07;25.62;;;14.96;;
60641;SDS011;46837;52.446;-1.930;2022-09-09T03:02:07;25.04;;;13.50;;
60641;SDS011;46837;52.446;-1.930;2022-09-09T03:03:07;29.84;;;13.12;;
60641;SDS011;46837;52.446;-1.930;2022-09-09T03:04:07;25.20;;;14.90;;
60641;SDS011;46837;52.446;-1.930;2022-09-09T03:05:07;20.02;;;12.34;;
60641;SDS011;46837;52.446;-1.930;2022-09-09T03:06:07;18.54;;;13.34;;
60641;SDS011;46837;52.446;-1.930;2022-09-09T03:07:07;28.74;;;16.06;;
60641;SDS011;46837;52.446;-1.930;2022-09-09T03:08:07;25.52;;;15.24;;
60641;SDS011;46837;52.446;-1.930;2022-09-09T03:09:07;35.58;;;15.58;;
60641;SDS011;46837;52.446;-1.930;2022-09-09T03:10:07;31.58;;;17.50;;
60641;SDS011;46837;52.446;-1.930;2022-09-09T03:11:07;26.80;;;16.46;;
60641;SDS011;46837;52.446;-1.930;2022-09-09T03:12:07;22.98;;;14.16;;
60641;SDS011;46837;52.446;-1.930;2022-09-09T03:13:07;31.98;;;17.86;;
60641;SDS011;46837;52.446;-1.930;2022-09-09T03:14:07;28.60;;;17.44;;
60641;SDS011;46837;52.446;-1.930;2022-09-09T03:15:07;20.92;;;13.58;;
60641;SDS011;46837;52.446;-1.930;2022-09-09T03:16:07;24.62;;;14.50;;
60641;SDS011;46837;52.446;-1.930;2022-09-09T03:17:07;30.24;;;17.24;;
60641;SDS011;46837;52.446;-1.930;2022-09-09T03:18:07;35.68;;;18.10;;
60641;SDS011;46837;52.446;-1.930;2022-09-09T03:19:07;27.82;;;16.08;;
60641;SDS011;46837;52.446;-1.930;2022-09-09T03:20:07;29.96;;;15.70;;
60641;SDS011;46837;52.446;-1.930;2022-09-09T03:21:07;23.02;;;15.72;;
60641;SDS011;46837;52.446;-1.930;2022-09-09T03:22:08;26.80;;;16.60;;
60641;SDS011;46837;52.446;-1.930;2022-09-09T03:23:07;20.74;;;14.82;;
60641;SDS011;46837;52.446;-1.930;2022-09-09T03:24:07;25.14;;;16.70;;
60641;SDS011;46837;52.446;-1.930;2022-09-09T03:25:07;35.32;;;19.22;;
60641;SDS011;46837;52.446;-1.930;2022-09-09T03:26:07;26.54;;;17.86;;
60641;SDS011;46837;52.446;-1.930;2022-09-09T03:27:07;26.84;;;18.16;;
60641;SDS011;46837;52.446;-1.930;2022-09-09T03:28:07;28.22;;;18.82;;
60641;SDS011;46837;52.446;-1.930;2022-09-09T03:29:09;28.74;;;19.04;;
60641;SDS011;46837;52.446;-1.930;2022-09-09T03:30:07;27.06;;;18.08;;
60641;SDS011;46837;52.446;-1.930;2022-09-09T03:31:07;28.98;;;18.28;;
60641;SDS011;46837;52.446;-1.930;2022-09-09T03:32:07;26.50;;;17.60;;
60641;SDS011;46837;52.446;-1.930;2022-09-09T03:33:07;30.14;;;20.46;;
60641;SDS011;46837;52.446;-1.930;2022-09-09T03:34:07;30.20;;;18.76;;
60641;SDS011;46837;52.446;-1.930;2022-09-09T03:35:07;36.08;;;20.28;;
60641;SDS011;46837;52.446;-1.930;2022-09-09T03:36:08;32.42;;;20.54;;
60641;SDS011;46837;52.446;-1.930;2022-09-09T03:37:07;29.52;;;21.26;;
60641;SDS011;46837;52.446;-1.930;2022-09-09T03:38:07;29.62;;;20.86;;
60641;SDS011;46837;52.446;-1.930;2022-09-09T03:39:07;30.82;;;19.74;;
60641;SDS011;46837;52.446;-1.930;2022-09-09T03:40:07;34.86;;;20.34;;
60641;SDS011;46837;52.446;-1.930;2022-09-09T03:41:08;32.92;;;20.00;;
60641;SDS011;46837;52.446;-1.930;2022-09-09T03:42:07;27.42;;;18.64;;
60641;SDS011;46837;52.446;-1.930;2022-09-09T03:43:07;38.20;;;20.64;;
60641;SDS011;46837;52.446;-1.930;2022-09-09T03:44:07;31.86;;;19.66;;
60641;SDS011;46837;52.446;-1.930;2022-09-09T03:45:07;29.66;;;21.04;;
60641;SDS011;46837;52.446;-1.930;2022-09-09T03:46:07;33.22;;;20.94;;
60641;SDS011;46837;52.446;-1.930;2022-09-09T03:47:07;31.78;;;21.70;;
60641;SDS011;46837;52.446;-1.930;2022-09-09T03:48:07;38.40;;;21.80;;
60641;SDS011;46837;52.446;-1.930;2022-09-09T03:49:07;33.28;;;21.20;;
60641;SDS011;46837;52.446;-1.930;2022-09-09T03:50:09;21.88;;;17.74;;
60641;SDS011;46837;52.446;-1.930;2022-09-09T03:51:07;35.46;;;21.08;;
60641;SDS011;46837;52.446;-1.930;2022-09-09T03:52:08;35.80;;;22.34;;
60641;SDS011;46837;52.446;-1.930;2022-09-09T03:53:07;30.16;;;21.08;;
60641;SDS011;46837;52.446;-1.930;2022-09-09T03:54:09;26.78;;;20.24;;
60641;SDS011;46837;52.446;-1.930;2022-09-09T03:55:07;28.62;;;19.84;;
60641;SDS011;46837;52.446;-1.930;2022-09-09T03:56:07;33.72;;;21.26;;
60641;SDS011;46837;52.446;-1.930;2022-09-09T03:57:07;31.64;;;20.38;;
60641;SDS011;46837;52.446;-1.930;2022-09-09T03:58:07;33.10;;;21.22;;
60641;SDS011;46837;52.446;-1.930;2022-09-09T03:59:07;35.32;;;21.52;;
60641;SDS011;46837;52.446;-1.930;2022-09-09T04:00:07;35.24;;;20.40;;
60641;SDS011;46837;52.446;-1.930;2022-09-09T04:01:08;27.46;;;20.14;;
60641;SDS011;46837;52.446;-1.930;2022-09-09T04:02:07;35.02;;;21.20;;
60641;SDS011;46837;52.446;-1.930;2022-09-09T04:03:07;27.38;;;20.00;;
60641;SDS011;46837;52.446;-1.930;2022-09-09T04:04:07;34.76;;;23.60;;
60641;SDS011;46837;52.446;-1.930;2022-09-09T04:05:07;32.54;;;21.90;;
60641;SDS011;46837;52.446;-1.930;2022-09-09T04:06:08;31.20;;;20.66;;
60641;SDS011;46837;52.446;-1.930;2022-09-09T04:07:07;36.16;;;22.40;;
60641;SDS011;46837;52.446;-1.930;2022-09-09T04:08:07;32.48;;;21.66;;
60641;SDS011;46837;52.446;-1.930;2022-09-09T04:09:07;33.44;;;22.38;;
60641;SDS011;46837;52.446;-1.930;2022-09-09T04:10:07;31.40;;;22.18;;
60641;SDS011;46837;52.446;-1.930;2022-09-09T04:11:07;37.76;;;21.70;;
60641;SDS011;46837;52.446;-1.930;2022-09-09T04:12:07;37.86;;;21.74;;
60641;SDS011;46837;52.446;-1.930;2022-09-09T04:13:07;34.22;;;22.00;;
60641;SDS011;46837;52.446;-1.930;2022-09-09T04:14:07;34.98;;;20.08;;
60641;SDS011;46837;52.446;-1.930;2022-09-09T04:15:07;33.80;;;22.50;;
60641;SDS011;46837;52.446;-1.930;2022-09-09T04:16:07;30.12;;;22.16;;
60641;SDS011;46837;52.446;-1.930;2022-09-09T04:17:07;34.52;;;22.34;;
60641;SDS011;46837;52.446;-1.930;2022-09-09T04:18:07;36.08;;;22.56;;
60641;SDS011;46837;52.446;-1.930;2022-09-09T04:19:07;39.22;;;23.08;;
60641;SDS011;46837;52.446;-1.930;2022-09-09T04:20:07;32.60;;;21.24;;
60641;SDS011;46837;52.446;-1.930;2022-09-09T04:21:08;30.76;;;22.18;;
60641;SDS011;46837;52.446;-1.930;2022-09-09T04:22:07;33.40;;;22.38;;
60641;SDS011;46837;52.446;-1.930;2022-09-09T04:23:07;35.38;;;21.42;;
60641;SDS011;46837;52.446;-1.930;2022-09-09T04:24:07;28.66;;;21.04;;
60641;SDS011;46837;52.446;-1.930;2022-09-09T04:25:07;32.84;;;22.06;;
60641;SDS011;46837;52.446;-1.930;2022-09-09T04:26:07;30.64;;;22.60;;
60641;SDS011;46837;52.446;-1.930;2022-09-09T04:27:07;32.14;;;22.10;;
60641;SDS011;46837;52.446;-1.930;2022-09-09T04:28:07;30.82;;;21.62;;
60641;SDS011;46837;52.446;-1.930;2022-09-09T04:29:08;35.20;;;23.48;;
60641;SDS011;46837;52.446;-1.930;2022-09-09T04:30:07;39.16;;;24.28;;
60641;SDS011;46837;52.446;-1.930;2022-09-09T04:31:07;37.60;;;23.60;;
60641;SDS011;46837;52.446;-1.930;2022-09-09T04:32:07;30.78;;;21.52;;
60641;SDS011;46837;52.446;-1.930;2022-09-09T04:33:07;31.64;;;21.62;;
60641;SDS011;46837;52.446;-1.930;2022-09-09T04:34:07;34.68;;;22.40;;
60641;SDS011;46837;52.446;-1.930;2022-09-09T04:35:07;27.30;;;19.78;;
60641;SDS011;46837;52.446;-1.930;2022-09-09T04:36:07;31.36;;;21.26;;
60641;SDS011;46837;52.446;-1.930;2022-09-09T04:37:07;37.32;;;24.10;;
60641;SDS011;46837;52.446;-1.930;2022-09-09T04:38:07;36.12;;;23.08;;
60641;SDS011;46837;52.446;-1.930;2022-09-09T04:39:07;34.62;;;21.46;;
60641;SDS011;46837;52.446;-1.930;2022-09-09T04:40:07;31.46;;;23.28;;
60641;SDS011;46837;52.446;-1.930;2022-09-09T04:41:07;34.08;;;23.32;;
60641;SDS011;46837;52.446;-1.930;2022-09-09T04:42:07;33.74;;;22.44;;
60641;SDS011;46837;52.446;-1.930;2022-09-09T04:43:07;39.18;;;24.28;;
60641;SDS011;46837;52.446;-1.930;2022-09-09T04:44:07;38.64;;;24.18;;
60641;SDS011;46837;52.446;-1.930;2022-09-09T04:45:07;36.22;;;22.52;;
60641;SDS011;46837;52.446;-1.930;2022-09-09T04:46:07;34.76;;;22.12;;
60641;SDS011;46837;52.446;-1.930;2022-09-09T04:47:07;37.74;;;23.44;;
60641;SDS011;46837;52.446;-1.930;2022-09-09T04:48:07;38.14;;;25.24;;
60641;SDS011;46837;52.446;-1.930;2022-09-09T04:49:07;37.92;;;23.22;;
60641;SDS011;46837;52.446;-1.930;2022-09-09T04:50:07;38.68;;;24.42;;
60641;SDS011;46837;52.446;-1.930;2022-09-09T04:51:08;30.96;;;23.20;;
60641;SDS011;46837;52.446;-1.930;2022-09-09T04:52:07;33.64;;;24.14;;
60641;SDS011;46837;52.446;-1.930;2022-09-09T04:53:07;32.62;;;23.62;;
60641;SDS011;46837;52.446;-1.930;2022-09-09T04:54:07;35.56;;;22.68;;
60641;SDS011;46837;52.446;-1.930;2022-09-09T04:55:07;30.56;;;21.74;;
60641;SDS011;46837;52.446;-1.930;2022-09-09T04:56:08;30.78;;;22.20;;
60641;SDS011;46837;52.446;-1.930;2022-09-09T04:57:07;31.44;;;22.16;;
60641;SDS011;46837;52.446;-1.930;2022-09-09T04:58:07;36.60;;;24.46;;
60641;SDS011;46837;52.446;-1.930;2022-09-09T04:59:07;34.44;;;24.16;;
60641;SDS011;46837;52.446;-1.930;2022-09-09T05:00:07;33.88;;;22.94;;
60641;SDS011;46837;52.446;-1.930;2022-09-09T05:01:07;33.42;;;23.64;;
60641;SDS011;46837;52.446;-1.930;2022-09-09T05:02:07;40.52;;;24.06;;
60641;SDS011;46837;52.446;-1.930;2022-09-09T05:03:07;34.32;;;24.22;;
60641;SDS011;46837;52.446;-1.930;2022-09-09T05:04:07;41.72;;;24.52;;
60641;SDS011;46837;52.446;-1.930;2022-09-09T05:05:07;37.96;;;24.30;;
60641;SDS011;46837;52.446;-1.930;2022-09-09T05:06:10;45.76;;;25.04;;
60641;SDS011;46837;52.446;-1.930;2022-09-09T05:07:07;40.60;;;25.42;;
60641;SDS011;46837;52.446;-1.930;2022-09-09T05:08:07;34.48;;;23.54;;
60641;SDS011;46837;52.446;-1.930;2022-09-09T05:09:07;36.30;;;24.86;;
60641;SDS011;46837;52.446;-1.930;2022-09-09T05:10:07;37.48;;;24.64;;
60641;SDS011;46837;52.446;-1.930;2022-09-09T05:12:07;34.18;;;24.30;;
60641;SDS011;46837;52.446;-1.930;2022-09-09T05:13:07;38.70;;;25.44;;
60641;SDS011;46837;52.446;-1.930;2022-09-09T05:14:07;32.76;;;23.88;;
60641;SDS011;46837;52.446;-1.930;2022-09-09T05:15:07;40.52;;;25.20;;
60641;SDS011;46837;52.446;-1.930;2022-09-09T05:16:07;38.46;;;24.58;;
60641;SDS011;46837;52.446;-1.930;2022-09-09T05:17:07;38.10;;;24.52;;
60641;SDS011;46837;52.446;-1.930;2022-09-09T05:18:07;42.22;;;25.68;;
60641;SDS011;46837;52.446;-1.930;2022-09-09T05:19:07;38.82;;;26.18;;
60641;SDS011;46837;52.446;-1.930;2022-09-09T05:20:07;38.68;;;25.90;;
60641;SDS011;46837;52.446;-1.930;2022-09-09T05:21:07;41.08;;;25.78;;
60641;SDS011;46837;52.446;-1.930;2022-09-09T05:22:07;36.48;;;24.64;;
60641;SDS011;46837;52.446;-1.930;2022-09-09T05:23:07;34.48;;;25.36;;
60641;SDS011;46837;52.446;-1.930;2022-09-09T05:24:07;36.36;;;24.78;;
60641;SDS011;46837;52.446;-1.930;2022-09-09T05:25:07;37.04;;;24.34;;
60641;SDS011;46837;52.446;-1.930;2022-09-09T05:26:08;41.28;;;24.74;;
60641;SDS011;46837;52.446;-1.930;2022-09-09T05:27:07;35.96;;;24.14;;
60641;SDS011;46837;52.446;-1.930;2022-09-09T05:28:08;41.34;;;26.24;;
60641;SDS011;46837;52.446;-1.930;2022-09-09T05:29:07;37.44;;;24.10;;
60641;SDS011;46837;52.446;-1.930;2022-09-09T05:30:07;43.24;;;26.58;;
60641;SDS011;46837;52.446;-1.930;2022-09-09T05:31:08;35.84;;;24.98;;
60641;SDS011;46837;52.446;-1.930;2022-09-09T05:32:07;35.26;;;25.80;;
60641;SDS011;46837;52.446;-1.930;2022-09-09T05:33:07;43.88;;;25.00;;
60641;SDS011;46837;52.446;-1.930;2022-09-09T05:34:07;39.88;;;24.36;;
60641;SDS011;46837;52.446;-1.930;2022-09-09T05:35:07;37.94;;;23.46;;
60641;SDS011;46837;52.446;-1.930;2022-09-09T05:36:08;39.42;;;24.94;;
60641;SDS011;46837;52.446;-1.930;2022-09-09T05:37:07;32.46;;;23.46;;
60641;SDS011;46837;52.446;-1.930;2022-09-09T05:38:07;35.34;;;22.92;;
60641;SDS011;46837;52.446;-1.930;2022-09-09T05:39:07;39.08;;;26.00;;
60641;SDS011;46837;52.446;-1.930;2022-09-09T05:40:07;35.48;;;23.84;;
60641;SDS011;46837;52.446;-1.930;2022-09-09T05:41:07;44.36;;;26.72;;
60641;SDS011;46837;52.446;-1.930;2022-09-09T05:42:07;44.42;;;25.48;;
60641;SDS011;46837;52.446;-1.930;2022-09-09T05:43:07;49.80;;;28.32;;
60641;SDS011;46837;52.446;-1.930;2022-09-09T05:44:07;41.84;;;26.38;;
60641;SDS011;46837;52.446;-1.930;2022-09-09T05:45:07;39.58;;;25.10;;
60641;SDS011;46837;52.446;-1.930;2022-09-09T05:46:11;41.98;;;26.92;;
60641;SDS011;46837;52.446;-1.930;2022-09-09T05:47:07;38.38;;;24.70;;
60641;SDS011;46837;52.446;-1.930;2022-09-09T05:48:07;46.98;;;27.02;;
60641;SDS011;46837;52.446;-1.930;2022-09-09T05:49:07;44.84;;;26.64;;
60641;SDS011;46837;52.446;-1.930;2022-09-09T05:50:07;47.52;;;29.48;;
60641;SDS011;46837;52.446;-1.930;2022-09-09T05:51:08;45.54;;;29.44;;
60641;SDS011;46837;52.446;-1.930;2022-09-09T05:52:07;41.30;;;26.72;;
60641;SDS011;46837;52.446;-1.930;2022-09-09T05:53:07;48.74;;;27.86;;
60641;SDS011;46837;52.446;-1.930;2022-09-09T05:54:07;41.18;;;27.94;;
60641;SDS011;46837;52.446;-1.930;2022-09-09T05:55:07;47.90;;;29.28;;
60641;SDS011;46837;52.446;-1.930;2022-09-09T05:56:07;43.86;;;29.04;;
60641;SDS011;46837;52.446;-1.930;2022-09-09T05:57:07;45.06;;;27.88;;
60641;SDS011;46837;52.446;-1.930;2022-09-09T05:58:07;48.72;;;28.94;;
60641;SDS011;46837;52.446;-1.930;2022-09-09T05:59:07;44.36;;;27.70;;
60641;SDS011;46837;52.446;-1.930;2022-09-09T06:00:07;42.98;;;27.90;;
60641;SDS011;46837;52.446;-1.930;2022-09-09T06:01:08;45.68;;;29.86;;
60641;SDS011;46837;52.446;-1.930;2022-09-09T06:02:08;48.14;;;28.50;;
60641;SDS011;46837;52.446;-1.930;2022-09-09T06:03:07;46.82;;;29.26;;
60641;SDS011;46837;52.446;-1.930;2022-09-09T06:04:07;49.40;;;28.82;;
60641;SDS011;46837;52.446;-1.930;2022-09-09T06:05:07;44.20;;;29.56;;
60641;SDS011;46837;52.446;-1.930;2022-09-09T06:06:08;45.80;;;28.36;;
60641;SDS011;46837;52.446;-1.930;2022-09-09T06:07:07;51.14;;;30.48;;
60641;SDS011;46837;52.446;-1.930;2022-09-09T06:08:07;43.76;;;27.44;;
60641;SDS011;46837;52.446;-1.930;2022-09-09T06:09:10;43.90;;;30.96;;
60641;SDS011;46837;52.446;-1.930;2022-09-09T06:10:07;45.70;;;31.26;;
60641;SDS011;46837;52.446;-1.930;2022-09-09T06:11:08;49.06;;;30.82;;
60641;SDS011;46837;52.446;-1.930;2022-09-09T06:12:07;43.58;;;28.88;;
60641;SDS011;46837;52.446;-1.930;2022-09-09T06:13:07;47.28;;;30.12;;
60641;SDS011;46837;52.446;-1.930;2022-09-09T06:14:07;39.52;;;28.12;;
60641;SDS011;46837;52.446;-1.930;2022-09-09T06:15:07;42.32;;;28.60;;
60641;SDS011;46837;52.446;-1.930;2022-09-09T06:16:10;42.38;;;27.32;;
60641;SDS011;46837;52.446;-1.930;2022-09-09T06:17:07;47.60;;;29.16;;
60641;SDS011;46837;52.446;-1.930;2022-09-09T06:18:07;45.38;;;29.46;;
60641;SDS011;46837;52.446;-1.930;2022-09-09T06:19:07;45.18;;;30.46;;
60641;SDS011;46837;52.446;-1.930;2022-09-09T06:20:07;42.74;;;28.92;;
60641;SDS011;46837;52.446;-1.930;2022-09-09T06:21:11;38.06;;;26.22;;
60641;SDS011;46837;52.446;-1.930;2022-09-09T06:22:07;43.40;;;29.32;;
60641;SDS011;46837;52.446;-1.930;2022-09-09T06:23:07;44.22;;;28.78;;
60641;SDS011;46837;52.446;-1.930;2022-09-09T06:24:07;41.62;;;27.92;;
60641;SDS011;46837;52.446;-1.930;2022-09-09T06:25:08;43.96;;;28.90;;
60641;SDS011;46837;52.446;-1.930;2022-09-09T06:26:09;47.68;;;30.12;;
60641;SDS011;46837;52.446;-1.930;2022-09-09T06:27:07;45.46;;;28.82;;
60641;SDS011;46837;52.446;-1.930;2022-09-09T06:28:07;44.94;;;27.54;;
60641;SDS011;46837;52.446;-1.930;2022-09-09T06:29:07;42.42;;;27.68;;
60641;SDS011;46837;52.446;-1.930;2022-09-09T06:30:07;39.68;;;26.28;;
60641;SDS011;46837;52.446;-1.930;2022-09-09T06:31:08;39.38;;;26.98;;
60641;SDS011;46837;52.446;-1.930;2022-09-09T06:32:07;41.62;;;28.60;;
60641;SDS011;46837;52.446;-1.930;2022-09-09T06:33:07;42.44;;;27.72;;
60641;SDS011;46837;52.446;-1.930;2022-09-09T06:34:07;37.56;;;26.42;;
60641;SDS011;46837;52.446;-1.930;2022-09-09T06:35:07;36.22;;;27.90;;
60641;SDS011;46837;52.446;-1.930;2022-09-09T06:36:07;44.16;;;27.90;;
60641;SDS011;46837;52.446;-1.930;2022-09-09T06:37:07;39.54;;;27.64;;
60641;SDS011;46837;52.446;-1.930;2022-09-09T06:38:07;43.96;;;26.12;;
60641;SDS011;46837;52.446;-1.930;2022-09-09T06:39:07;42.98;;;27.24;;
60641;SDS011;46837;52.446;-1.930;2022-09-09T06:40:07;37.82;;;25.02;;
60641;SDS011;46837;52.446;-1.930;2022-09-09T06:41:07;40.90;;;26.80;;
60641;SDS011;46837;52.446;-1.930;2022-09-09T06:42:07;39.64;;;28.42;;
60641;SDS011;46837;52.446;-1.930;2022-09-09T06:43:07;37.32;;;25.68;;
60641;SDS011;46837;52.446;-1.930;2022-09-09T06:44:07;41.44;;;26.02;;
60641;SDS011;46837;52.446;-1.930;2022-09-09T06:45:07;40.72;;;25.58;;
60641;SDS011;46837;52.446;-1.930;2022-09-09T06:46:08;37.28;;;27.56;;
60641;SDS011;46837;52.446;-1.930;2022-09-09T06:47:07;42.48;;;26.76;;
60641;SDS011;46837;52.446;-1.930;2022-09-09T06:48:07;40.32;;;27.72;;
60641;SDS011;46837;52.446;-1.930;2022-09-09T06:49:10;40.12;;;26.88;;
60641;SDS011;46837;52.446;-1.930;2022-09-09T06:50:08;34.26;;;24.24;;
60641;SDS011;46837;52.446;-1.930;2022-09-09T06:51:08;43.28;;;28.78;;
60641;SDS011;46837;52.446;-1.930;2022-09-09T06:52:07;38.48;;;26.98;;
60641;SDS011;46837;52.446;-1.930;2022-09-09T06:53:07;36.30;;;26.92;;
60641;SDS011;46837;52.446;-1.930;2022-09-09T06:54:07;40.36;;;27.48;;
60641;SDS011;46837;52.446;-1.930;2022-09-09T06:55:07;40.36;;;27.50;;
60641;SDS011;46837;52.446;-1.930;2022-09-09T06:57:08;36.10;;;27.40;;
60641;SDS011;46837;52.446;-1.930;2022-09-09T06:58:10;35.46;;;26.52;;